.
WxDataArchive / Data Records for 2011-03-17
2011-03-16 March 2011 2011-03-18

Data Records for Thursday, 17 March 2011

Time	Temp	Chill	HIndex	Humid	Dewpt	 Wind 	HiWind	WindDir	Rain 	Barom 
-----	----	-----	------	-----	-----	------	------	-------	-----	----- 
00:00	48.0	48.0	48.0	69	38.3	0	2	248	0.00	30.135 
00:05	48.0	48.0	48.0	69	38.3	0	2	248	0.00	30.135 
00:10	47.9	47.9	47.9	69	38.2	0	3	248	0.00	30.135 
00:15	47.7	47.7	47.7	69	38.0	0	1	248	0.00	30.126 
00:20	47.6	47.6	47.6	69	37.9	0	1	248	0.00	30.126 
00:25	47.3	47.3	47.3	69	37.7	0	1	248	0.00	30.126 
00:30	47.1	47.1	47.1	70	37.8	0	1	248	0.00	30.130 
00:35	47.1	47.1	47.1	70	37.8	0	3	248	0.00	30.130 
00:40	47.3	47.3	47.3	70	38.0	1	5	248	0.00	30.130 
00:45	47.4	47.4	47.4	70	38.1	0	2	248	0.00	30.129 
00:50	47.4	47.4	47.4	70	38.1	1	3	248	0.00	30.129 
00:55	47.6	47.6	47.6	69	37.9	1	3	248	0.00	30.129 
01:00	47.6	47.6	47.6	69	37.9	1	3	248	0.00	30.130 
01:05	47.6	47.6	47.6	69	37.9	1	3	248	0.00	30.130 
01:10	47.4	47.4	47.4	69	37.7	1	4	248	0.00	30.130 
01:15	47.4	47.4	47.4	69	37.7	1	4	248	0.00	30.128 
01:20	47.3	47.3	47.3	69	37.7	1	3	248	0.00	30.128 
01:25	47.1	47.1	47.1	69	37.5	0	3	248	0.00	30.128 
01:30	47.0	47.0	47.0	70	37.7	1	3	248	0.00	30.124 
01:35	46.7	46.7	46.7	70	37.4	0	1	248	0.00	30.124 
01:40	46.5	46.5	46.5	71	37.6	1	2	248	0.00	30.124 
01:45	46.4	46.4	46.4	71	37.5	0	1	248	0.00	30.121 
01:50	46.2	46.2	46.2	71	37.3	0	1	248	0.00	30.121 
01:55	46.0	46.0	46.0	72	37.5	0	4	248	0.00	30.121 
02:00	45.8	45.8	45.8	72	37.3	0	2	248	0.00	30.120 
02:05	45.7	45.7	45.7	72	37.2	0	1	248	0.00	30.120 
02:10	45.2	45.2	45.2	73	37.1	0	1	248	0.00	30.120 
02:15	44.9	44.9	44.9	73	36.8	0	0	---	0.00	30.116 
02:20	44.6	44.6	44.6	74	36.8	0	1	248	0.00	30.116 
02:25	44.2	44.2	44.2	74	36.4	0	0	---	0.00	30.116 
02:30	43.9	43.9	43.9	75	36.5	0	0	---	0.00	30.118 
02:35	43.5	43.5	43.5	76	36.4	0	1	248	0.00	30.118 
02:40	43.2	43.2	43.2	77	36.5	0	1	248	0.00	30.118 
02:45	43.1	43.1	43.1	77	36.4	0	0	---	0.00	30.109 
02:50	42.9	42.9	42.9	78	36.5	0	0	---	0.00	30.109 
02:55	42.8	42.8	42.8	78	36.4	0	1	248	0.00	30.109 
03:00	42.6	42.6	42.6	79	36.6	0	0	---	0.00	30.113 
03:05	42.5	42.5	42.5	79	36.5	0	0	---	0.00	30.113 
03:10	42.2	42.2	42.2	79	36.2	0	0	---	0.00	30.113 
03:15	41.9	41.9	41.9	79	35.9	0	0	---	0.00	30.110 
03:20	41.8	41.8	41.8	80	36.1	0	0	---	0.00	30.110 
03:25	41.6	41.6	41.6	81	36.2	0	0	---	0.00	30.110 
03:30	41.5	41.5	41.5	81	36.1	0	0	---	0.00	30.102 
03:35	41.5	41.5	41.5	81	36.1	0	0	---	0.00	30.102 
03:40	41.5	41.5	41.5	82	36.4	0	0	---	0.00	30.102 
03:45	41.5	41.5	41.5	82	36.4	0	0	---	0.00	30.102 
03:50	41.5	41.5	41.5	82	36.4	0	0	---	0.00	30.102 
03:55	41.5	41.5	41.5	82	36.4	0	0	---	0.00	30.102 
04:00	41.6	41.6	41.6	81	36.2	0	0	---	0.00	30.091 
04:05	41.6	41.6	41.6	81	36.2	0	0	---	0.00	30.091 
04:10	41.5	41.5	41.5	81	36.1	0	1	248	0.00	30.091 
04:15	41.5	41.5	41.5	81	36.1	0	1	248	0.00	30.086 
04:20	41.5	41.5	41.5	81	36.1	0	1	248	0.00	30.086 
04:25	41.5	41.5	41.5	81	36.1	0	1	248	0.00	30.086 
04:30	41.5	41.5	41.5	80	35.8	0	0	---	0.00	30.080 
04:35	41.5	41.5	41.5	80	35.8	0	0	---	0.00	30.080 
04:40	41.6	41.6	41.6	80	35.9	0	1	248	0.00	30.080 
04:45	41.6	41.6	41.6	80	35.9	0	0	---	0.00	30.072 
04:50	41.6	41.6	41.6	80	35.9	0	1	248	0.00	30.072 
04:55	41.6	41.6	41.6	79	35.6	0	0	---	0.00	30.072 
05:00	41.6	41.6	41.6	79	35.6	0	1	248	0.00	30.078 
05:05	41.6	41.6	41.6	79	35.6	0	1	248	0.00	30.078 
05:10	41.6	41.6	41.6	79	35.6	0	1	248	0.00	30.078 
05:15	41.6	41.6	41.6	79	35.6	0	1	248	0.00	30.078 
05:20	41.8	41.8	41.8	79	35.8	0	3	248	0.00	30.078 
05:25	41.9	41.9	41.9	79	35.9	0	2	248	0.00	30.078 
05:30	42.2	42.2	42.2	78	35.8	1	4	248	0.00	30.080 
05:35	42.3	42.3	42.3	78	35.9	0	2	248	0.00	30.080 
05:40	42.3	42.3	42.3	77	35.6	0	1	248	0.00	30.080 
05:45	42.3	42.3	42.3	77	35.6	0	2	248	0.00	30.082 
05:50	42.3	42.3	42.3	77	35.6	0	1	248	0.00	30.082 
05:55	42.2	42.2	42.2	77	35.5	0	1	248	0.00	30.082 
06:00	42.2	42.2	42.2	77	35.5	0	2	248	0.00	30.085 
06:05	42.1	42.1	42.1	77	35.4	0	1	248	0.00	30.085 
06:10	41.9	41.9	41.9	77	35.2	0	0	---	0.00	30.085 
06:15	41.8	41.8	41.8	77	35.1	0	0	---	0.00	30.085 
06:20	41.6	41.6	41.6	78	35.3	0	1	248	0.00	30.085 
06:25	41.5	41.5	41.5	78	35.2	0	1	248	0.00	30.085 
06:30	41.3	41.3	41.3	78	35.0	0	1	248	0.00	30.088 
06:35	41.2	41.2	41.2	79	35.2	0	1	248	0.00	30.088 
06:40	41.1	41.1	41.1	79	35.1	0	0	---	0.00	30.088 
06:45	40.9	40.9	40.9	79	34.9	0	0	---	0.00	30.088 
06:50	40.8	40.8	40.8	79	34.8	0	0	---	0.00	30.088 
06:55	40.6	40.6	40.6	80	34.9	0	0	---	0.00	30.088 
07:00	40.6	40.6	40.6	80	34.9	0	0	---	0.00	30.087 
07:05	40.5	40.5	40.5	80	34.8	0	0	---	0.00	30.087 
07:10	40.5	40.5	40.5	80	34.8	0	0	---	0.00	30.087 
07:15	40.3	40.3	40.3	80	34.6	0	0	---	0.00	30.086 
07:20	40.2	40.2	40.2	80	34.5	0	0	---	0.00	30.086 
07:25	40.2	40.2	40.2	80	34.5	0	0	---	0.00	30.086 
07:30	40.1	40.1	40.1	81	34.7	0	0	---	0.00	30.085 
07:35	39.9	39.9	39.9	81	34.6	0	1	248	0.00	30.085 
07:40	39.9	39.9	39.9	81	34.6	0	1	248	0.00	30.085 
07:45	40.1	40.1	40.1	81	34.7	0	1	248	0.00	30.090 
07:50	40.1	40.1	40.1	81	34.7	0	1	248	0.00	30.090 
07:55	40.1	40.1	40.1	81	34.7	0	0	---	0.00	30.090 
08:00	40.2	40.2	40.2	81	34.8	0	0	---	0.00	30.092 
08:05	40.1	40.1	40.1	81	34.7	0	0	---	0.00	30.092 
08:10	40.1	40.1	40.1	81	34.7	0	0	---	0.00	30.092 
08:15	40.2	40.2	40.2	80	34.5	0	1	248	0.00	30.101 
08:20	40.3	40.3	40.3	81	34.9	0	0	---	0.00	30.101 
08:25	40.5	40.5	40.5	81	35.1	0	0	---	0.00	30.101 
08:30	40.9	40.9	40.9	80	35.2	0	1	248	0.00	30.098 
08:35	41.3	41.3	41.3	79	35.3	0	1	248	0.00	30.098 
08:40	41.8	41.8	41.8	78	35.5	0	2	248	0.00	30.098 
08:45	42.3	42.3	42.3	77	35.6	0	2	248	0.00	30.093 
08:50	42.6	42.6	42.6	77	35.9	0	2	248	0.00	30.093 
08:55	42.9	42.9	42.9	76	35.9	1	3	112	0.00	30.093 
09:00	43.1	43.1	43.1	76	36.1	1	4	112	0.00	30.090 
09:05	43.3	43.3	43.3	75	35.9	1	3	112	0.00	30.090 
09:10	43.6	43.6	43.6	75	36.2	1	3	112	0.00	30.090 
09:15	43.9	43.9	43.9	75	36.5	1	4	112	0.00	30.093 
09:20	44.3	44.3	44.3	74	36.5	1	3	112	0.00	30.093 
09:25	44.8	44.8	44.8	73	36.7	1	3	112	0.00	30.093 
09:30	45.1	45.1	45.1	73	37.0	1	4	112	0.00	30.090 
09:35	45.4	45.4	45.4	73	37.3	1	3	112	0.00	30.090 
09:40	45.8	45.8	45.8	73	37.6	1	4	292	0.00	30.090 
09:45	46.1	46.1	46.1	72	37.6	1	3	90	0.00	30.087 
09:50	46.5	46.5	46.5	71	37.6	1	4	90	0.00	30.087 
09:55	47.0	47.0	47.0	70	37.7	1	4	270	0.00	30.087 
10:00	47.4	47.4	47.4	69	37.7	1	5	315	0.00	30.076 
10:05	47.9	47.9	47.9	69	38.2	1	4	248	0.00	30.076 
10:10	48.3	48.3	48.3	69	38.6	1	3	248	0.00	30.076 
10:15	48.8	48.8	48.8	68	38.7	1	4	270	0.00	30.077 
10:20	49.2	49.2	49.2	66	38.3	1	3	270	0.00	30.077 
10:25	49.8	49.8	49.8	66	38.9	1	5	248	0.00	30.077 
10:30	50.2	50.2	50.2	64	38.5	2	6	248	0.00	30.072 
10:35	51.0	51.0	51.0	64	39.3	2	5	225	0.00	30.072 
10:40	51.4	51.4	51.4	63	39.2	3	7	270	0.00	30.072 
10:45	52.2	52.2	52.2	63	40.0	1	5	248	0.00	30.070 
10:50	52.8	52.8	52.8	62	40.1	2	7	248	0.00	30.070 
10:55	52.8	52.8	52.8	60	39.3	3	7	248	0.00	30.070 
11:00	52.9	52.9	52.9	61	39.8	2	7	248	0.00	30.061 
11:05	53.5	53.5	53.5	60	40.0	3	9	248	0.00	30.061 
11:10	54.1	54.1	54.1	60	40.5	2	6	248	0.00	30.061 
11:15	54.7	54.7	54.7	59	40.7	2	9	248	0.00	30.048 
11:20	55.1	55.1	55.1	58	40.6	2	5	248	0.00	30.048 
11:25	55.7	55.7	55.7	58	41.2	2	6	248	0.00	30.048 
11:30	56.3	56.3	56.3	57	41.3	2	6	248	0.00	30.034 
11:35	56.7	56.7	56.7	56	41.2	3	9	248	0.00	30.034 
11:40	57.2	57.2	57.2	56	41.6	3	7	248	0.00	30.034 
11:45	58.1	58.1	58.1	56	42.5	2	6	248	0.00	30.032 
11:50	58.6	58.6	58.6	55	42.5	4	10	270	0.00	30.032 
11:55	59.2	59.2	59.2	55	43.0	2	6	248	0.00	30.032 
12:00	59.5	59.5	59.5	55	43.3	3	11	248	0.00	30.022 
12:05	59.5	59.5	59.5	54	42.8	4	10	248	0.00	30.022 
12:10	59.8	59.8	59.8	54	43.1	3	9	248	0.00	30.022 
12:15	60.1	60.1	60.1	55	43.9	3	7	248	0.00	30.016 
12:20	60.5	60.5	60.5	54	43.8	4	10	248	0.00	30.016 
12:25	61.0	61.0	61.0	54	44.2	3	13	248	0.00	30.016 
12:30	61.3	61.3	61.3	54	44.5	3	9	248	0.00	30.011 
12:35	62.0	62.0	62.0	53	44.7	3	10	270	0.00	30.011 
12:40	62.1	62.1	62.1	52	44.3	4	10	270	0.00	30.011 
12:45	62.7	62.7	62.7	54	45.8	3	7	248	0.00	29.997 
12:50	63.1	63.1	63.1	52	45.2	4	12	270	0.00	29.997 
12:55	63.1	63.1	63.1	53	45.7	4	10	248	0.00	29.997 
13:00	63.4	63.4	63.4	52	45.5	4	12	248	0.00	29.994 
13:05	63.7	63.7	63.7	52	45.7	4	11	248	0.00	29.994 
13:10	64.0	64.0	64.0	52	46.0	3	7	248	0.00	29.994 
13:15	64.5	64.5	64.5	51	46.0	3	9	270	0.00	29.988 
13:20	64.5	64.5	64.5	51	46.0	3	10	248	0.00	29.988 
13:25	64.5	64.5	64.5	53	47.0	3	10	248	0.00	29.988 
13:30	64.2	64.2	64.2	53	46.7	4	14	270	0.00	29.982 
13:35	64.2	64.2	64.2	53	46.7	3	7	248	0.00	29.982 
13:40	64.3	64.3	64.3	54	47.3	3	7	270	0.00	29.982 
13:45	64.7	64.7	64.7	53	47.2	4	12	248	0.00	29.964 
13:50	65.0	65.0	65.0	54	47.9	3	8	248	0.00	29.964 
13:55	65.6	65.6	65.6	53	48.0	2	7	248	0.00	29.964 
14:00	66.0	66.0	66.0	53	48.4	3	7	248	0.00	29.947 
14:05	66.6	66.6	66.6	52	48.4	3	9	248	0.00	29.947 
14:10	66.8	66.8	66.8	53	49.1	3	9	225	0.00	29.947 
14:15	66.9	66.9	66.9	54	49.7	2	7	248	0.00	29.939 
14:20	67.1	67.1	67.1	51	48.4	3	9	248	0.00	29.939 
14:25	67.1	67.1	67.1	53	49.4	3	7	248	0.00	29.939 
14:30	67.3	67.3	67.3	53	49.6	3	7	248	0.00	29.929 
14:35	67.8	67.8	67.8	52	49.5	3	9	248	0.00	29.929 
14:40	68.1	68.1	68.1	51	49.3	2	6	248	0.00	29.929 
14:45	68.4	68.4	68.4	51	49.6	4	9	248	0.00	29.918 
14:50	68.4	68.4	68.4	51	49.6	3	10	248	0.00	29.918 
14:55	68.1	68.1	68.1	52	49.8	3	10	292	0.00	29.918 
15:00	67.6	67.6	67.6	53	49.9	4	11	248	0.00	29.901 
15:05	67.6	67.6	67.6	53	49.9	2	7	248	0.00	29.901 
15:10	67.8	67.8	67.8	54	50.5	2	6	225	0.00	29.901 
15:15	67.6	67.6	67.6	54	50.4	3	6	248	0.00	29.899 
15:20	67.8	67.8	67.8	53	50.0	5	11	248	0.00	29.899 
15:25	67.8	67.8	67.8	53	50.0	5	12	248	0.00	29.899 
15:30	68.1	68.1	68.1	55	51.3	2	7	248	0.00	29.886 
15:35	68.6	68.6	68.6	55	51.8	3	16	248	0.00	29.886 
15:40	68.8	68.8	68.8	52	50.4	3	9	248	0.00	29.886 
15:45	68.6	68.6	68.6	53	50.8	3	12	248	0.00	29.886 
15:50	68.8	68.8	68.8	52	50.4	3	7	248	0.00	29.886 
15:55	68.4	68.4	68.4	52	50.1	6	15	248	0.00	29.886 
16:00	68.4	68.4	68.4	54	51.1	3	11	248	0.00	29.884 
16:05	68.4	68.4	68.4	53	50.6	4	10	248	0.00	29.884 
16:10	67.9	67.9	67.9	53	50.1	5	11	270	0.00	29.884 
16:15	67.9	67.9	67.9	54	50.6	2	7	248	0.00	29.878 
16:20	68.4	68.4	68.4	52	50.1	3	9	270	0.00	29.878 
16:25	68.6	68.6	68.6	53	50.8	4	12	248	0.00	29.878 
16:30	68.6	68.6	68.6	52	50.3	4	11	248	0.00	29.870 
16:35	68.6	68.6	68.6	52	50.3	4	10	270	0.00	29.870 
16:40	68.8	68.8	68.8	52	50.4	4	11	270	0.00	29.870 
16:45	68.9	68.9	68.9	51	50.0	3	10	248	0.00	29.867 
16:50	69.1	69.1	69.1	50	49.7	3	10	248	0.00	29.867 
16:55	68.8	68.8	68.8	51	49.9	4	11	248	0.00	29.867 
17:00	68.4	68.4	68.4	52	50.1	3	8	248	0.00	29.856 
17:05	68.4	68.4	68.4	51	49.6	3	12	315	0.00	29.856 
17:10	68.4	68.4	68.4	51	49.6	3	9	270	0.00	29.856 
17:15	68.4	68.4	68.4	51	49.6	5	12	248	0.00	29.843 
17:20	68.6	68.6	68.6	51	49.7	4	12	112	0.00	29.843 
17:25	68.4	68.4	68.4	52	50.1	4	10	248	0.00	29.843 
17:30	68.3	68.3	68.3	52	50.0	4	11	248	0.00	29.834 
17:35	68.3	68.3	68.3	52	50.0	3	11	270	0.00	29.834 
17:40	68.3	68.3	68.3	52	50.0	3	10	90	0.00	29.834 
17:45	68.4	68.4	68.4	52	50.1	3	12	248	0.00	29.836 
17:50	68.4	68.4	68.4	52	50.1	2	8	248	0.00	29.836 
17:55	68.6	68.6	68.6	52	50.3	4	11	248	0.00	29.836 
18:00	68.8	68.8	68.8	52	50.4	2	7	248	0.00	29.836 
18:05	68.9	68.9	68.9	52	50.5	3	7	248	0.00	29.836 
18:10	68.9	68.9	68.9	52	50.5	3	6	248	0.00	29.836 
18:15	68.8	68.8	68.8	52	50.4	2	7	248	0.00	29.828 
18:20	68.6	68.6	68.6	53	50.8	2	9	248	0.00	29.828 
18:25	68.4	68.4	68.4	52	50.1	3	10	270	0.00	29.828 
18:30	68.4	68.4	68.4	53	50.6	2	5	270	0.00	29.824 
18:35	68.3	68.3	68.3	54	51.0	2	7	270	0.00	29.824 
18:40	68.1	68.1	68.1	54	50.8	3	11	248	0.00	29.824 
18:45	68.1	68.1	68.1	54	50.8	2	5	248	0.00	29.819 
18:50	68.1	68.1	68.1	54	50.8	2	6	248	0.00	29.819 
18:55	67.9	67.9	67.9	55	51.1	1	4	248	0.00	29.819 
19:00	67.8	67.8	67.8	55	51.0	1	4	248	0.00	29.815 
19:05	67.8	67.8	67.8	55	51.0	2	11	248	0.00	29.815 
19:10	67.9	67.9	67.9	55	51.1	3	5	248	0.00	29.815 
19:15	67.9	67.9	67.9	55	51.1	2	10	270	0.00	29.820 
19:20	67.9	67.9	67.9	56	51.6	2	9	248	0.00	29.820 
19:25	67.9	67.9	67.9	55	51.1	3	7	248	0.00	29.820 
19:30	67.9	67.9	67.9	55	51.1	2	7	248	0.00	29.828 
19:35	68.1	68.1	68.1	55	51.3	4	11	248	0.00	29.828 
19:40	68.1	68.1	68.1	56	51.8	3	10	248	0.00	29.828 
19:45	67.9	67.9	67.9	56	51.6	3	9	248	0.00	29.839 
19:50	67.8	67.8	67.8	56	51.5	2	5	248	0.00	29.839 
19:55	67.6	67.6	67.6	57	51.8	3	11	248	0.00	29.839 
20:00	67.6	67.6	67.6	57	51.8	3	6	248	0.00	29.855 
20:05	67.6	67.6	67.6	57	51.8	4	10	248	0.00	29.855 
20:10	67.6	67.6	67.6	57	51.8	4	11	248	0.00	29.855 
20:15	67.6	67.6	67.6	57	51.8	4	9	248	0.00	29.862 
20:20	67.6	67.6	67.6	58	52.3	3	7	248	0.00	29.862 
20:25	67.6	67.6	67.6	58	52.3	3	6	248	0.00	29.862 
20:30	67.4	67.4	67.4	58	52.1	3	7	248	0.00	29.868 
20:35	67.4	67.4	67.4	58	52.1	4	11	248	0.00	29.868 
20:40	67.3	67.3	67.3	59	52.5	3	9	248	0.00	29.868 
20:45	67.3	67.3	67.3	59	52.5	2	5	248	0.00	29.869 
20:50	67.1	67.1	67.1	60	52.7	2	9	248	0.00	29.869 
20:55	67.1	67.1	67.1	60	52.7	2	10	248	0.00	29.869 
21:00	67.1	67.1	67.1	60	52.7	3	7	248	0.00	29.869 
21:05	67.1	67.1	67.1	60	52.7	3	7	248	0.00	29.869 
21:10	67.1	67.1	67.1	60	52.7	3	6	270	0.00	29.869 
21:15	67.1	67.1	67.1	59	52.3	3	9	248	0.00	29.868 
21:20	67.1	67.1	67.1	59	52.3	3	6	248	0.00	29.868 
21:25	67.1	67.1	67.1	59	52.3	3	7	248	0.00	29.868 
21:30	67.1	67.1	67.1	59	52.3	3	8	248	0.00	29.876 
21:35	67.3	67.3	67.3	59	52.5	4	10	248	0.00	29.876 
21:40	67.3	67.3	67.3	59	52.5	2	7	248	0.00	29.876 
21:45	67.3	67.3	67.3	59	52.5	4	9	248	0.00	29.870 
21:50	67.3	67.3	67.3	58	52.0	5	15	248	0.00	29.870 
21:55	67.4	67.4	67.4	58	52.1	4	11	248	0.00	29.870 
22:00	67.3	67.3	67.3	59	52.5	3	7	248	0.00	29.868 
22:05	67.3	67.3	67.3	59	52.5	3	7	248	0.00	29.868 
22:10	67.1	67.1	67.1	59	52.3	3	10	248	0.00	29.868 
22:15	67.1	67.1	67.1	59	52.3	3	7	248	0.00	29.862 
22:20	67.1	67.1	67.1	59	52.3	3	9	248	0.00	29.862 
22:25	67.1	67.1	67.1	59	52.3	3	7	248	0.00	29.862 
22:30	67.1	67.1	67.1	59	52.3	4	10	248	0.00	29.864 
22:35	67.1	67.1	67.1	59	52.3	2	11	248	0.00	29.864 
22:40	66.9	66.9	66.9	59	52.1	3	7	248	0.00	29.864 
22:45	66.9	66.9	66.9	59	52.1	3	6	248	0.00	29.864 
22:50	66.9	66.9	66.9	59	52.1	4	7	248	0.00	29.864 
22:55	67.1	67.1	67.1	59	52.3	5	10	248	0.00	29.864 
23:00	66.9	66.9	66.9	59	52.1	3	7	248	0.00	29.868 
23:05	66.9	66.9	66.9	59	52.1	4	11	248	0.00	29.868 
23:10	66.9	66.9	66.9	59	52.1	3	11	248	0.00	29.868 
23:15	66.9	66.9	66.9	59	52.1	4	11	248	0.00	29.868 
23:20	66.8	66.8	66.8	60	52.5	4	12	248	0.00	29.868 
23:25	66.8	66.8	66.8	60	52.5	5	11	248	0.00	29.868 
23:30	66.8	66.8	66.8	60	52.5	2	6	270	0.00	29.864 
23:35	66.6	66.6	66.6	60	52.3	3	10	270	0.00	29.864 
23:40	66.4	66.4	66.4	60	52.1	3	7	248	0.00	29.864 
23:45	66.4	66.4	66.4	60	52.1	3	11	248	0.00	29.864 
23:50	66.4	66.4	66.4	60	52.1	4	11	248	0.00	29.864 
23:55	66.6	66.6	66.6	60	52.3	5	10	248	0.00	29.864 

CoCoRaHS
IN-AL-39
A2 Web Hosting
Creative Commons License
GoDaddy
search engine by freefind advanced

loaded 2018-11-17 19:20:42 • last modified 2010-11-18 10:43:29
Privacy PolicyDisclaimer
• wx.awcolley.com is powered by PmWiki v.2002016 •
• all content (unless otherwise noted) © 2018 A W Colley